sensor_id;sensor_type;location;lat;lon;timestamp;pressure;altitude;pressure_sealevel;temperature;humidity
7586;BME280;12459;42.646;23.292;2023-11-19T00:14:37;93486.50;;;4.24;81.93
7586;BME280;12459;42.646;23.292;2023-11-19T00:29:38;92955.19;;;0.31;81.56
7586;BME280;12459;42.646;23.292;2023-11-19T00:44:40;93380.44;;;3.13;82.55
7586;BME280;12459;42.646;23.292;2023-11-19T00:59:51;93576.53;;;4.51;83.57
7586;BME280;12459;42.646;23.292;2023-11-19T01:14:54;93673.38;;;5.04;84.14
7586;BME280;12459;42.646;23.292;2023-11-19T01:29:56;93622.19;;;4.67;81.31
7586;BME280;12459;42.646;23.292;2023-11-19T01:44:59;93536.19;;;4.31;82.23
7586;BME280;12459;42.646;23.292;2023-11-19T02:00:01;93689.91;;;5.24;81.31
7586;BME280;12459;42.646;23.292;2023-11-19T02:15:05;93756.91;;;4.77;80.33
7586;BME280;12459;42.646;23.292;2023-11-19T02:30:07;93699.38;;;4.88;80.38
7586;BME280;12459;42.646;23.292;2023-11-19T02:45:10;93579.19;;;4.51;79.22
7586;BME280;12459;42.646;23.292;2023-11-19T03:00:20;93656.97;;;4.95;79.84
7586;BME280;12459;42.646;23.292;2023-11-19T03:15:25;93331.63;;;1.75;81.86
7586;BME280;12459;42.646;23.292;2023-11-19T03:30:27;93066.13;;;0.49;80.94
7586;BME280;12459;42.646;23.292;2023-11-19T03:45:32;93515.50;;;3.76;80.96
7586;BME280;12459;42.646;23.292;2023-11-19T04:00:34;93446.03;;;3.27;80.85
7586;BME280;12459;42.646;23.292;2023-11-19T04:15:36;93569.03;;;3.59;81.07
7586;BME280;12459;42.646;23.292;2023-11-19T04:30:37;93531.56;;;3.31;81.54
7586;BME280;12459;42.646;23.292;2023-11-19T04:45:39;93613.53;;;3.76;79.86
7586;BME280;12459;42.646;23.292;2023-11-19T05:00:41;93700.91;;;4.89;78.95
7586;BME280;12459;42.646;23.292;2023-11-19T05:15:43;93664.91;;;3.95;78.19
7586;BME280;12459;42.646;23.292;2023-11-19T05:30:44;93643.50;;;3.80;78.84
7586;BME280;12459;42.646;23.292;2023-11-19T05:45:46;93454.59;;;2.64;78.76
7586;BME280;12459;42.646;23.292;2023-11-19T06:00:48;93737.31;;;4.55;79.58
7586;BME280;12459;42.646;23.292;2023-11-19T06:15:52;93757.63;;;4.44;80.50
7586;BME280;12459;42.646;23.292;2023-11-19T06:30:54;93822.66;;;4.61;80.87
7586;BME280;12459;42.646;23.292;2023-11-19T06:45:55;93729.66;;;4.20;80.88
7586;BME280;12459;42.646;23.292;2023-11-19T07:00:58;93772.09;;;4.50;80.31
7586;BME280;12459;42.646;23.292;2023-11-19T07:15:59;93739.94;;;3.99;80.26
7586;BME280;12459;42.646;23.292;2023-11-19T07:31:01;93619.91;;;2.96;80.41
7586;BME280;12459;42.646;23.292;2023-11-19T07:46:03;93710.88;;;3.79;78.04
7586;BME280;12459;42.646;23.292;2023-11-19T08:01:06;93830.94;;;4.56;77.97
7586;BME280;12459;42.646;23.292;2023-11-19T08:16:08;93729.09;;;3.58;76.36
7586;BME280;12459;42.646;23.292;2023-11-19T08:31:11;93733.03;;;3.45;79.31
7586;BME280;12459;42.646;23.292;2023-11-19T08:46:13;93880.09;;;5.02;77.04
7586;BME280;12459;42.646;23.292;2023-11-19T09:01:15;93819.78;;;4.73;75.66
7586;BME280;12459;42.646;23.292;2023-11-19T09:16:17;93822.97;;;5.86;74.85
7586;BME280;12459;42.646;23.292;2023-11-19T09:31:18;93704.38;;;4.60;72.84
7586;BME280;12459;42.646;23.292;2023-11-19T09:46:20;93741.28;;;5.87;72.11
7586;BME280;12459;42.646;23.292;2023-11-19T10:01:22;93774.66;;;6.97;70.87
7586;BME280;12459;42.646;23.292;2023-11-19T10:16:30;93770.16;;;7.09;68.21
7586;BME280;12459;42.646;23.292;2023-11-19T10:31:34;93736.75;;;7.43;66.54
7586;BME280;12459;42.646;23.292;2023-11-19T10:46:37;93773.75;;;7.84;64.61
7586;BME280;12459;42.646;23.292;2023-11-19T11:01:44;93747.84;;;7.77;64.09
7586;BME280;12459;42.646;23.292;2023-11-19T11:16:48;93537.94;;;6.57;64.07
7586;BME280;12459;42.646;23.292;2023-11-19T11:47:07;93644.94;;;7.80;61.70
7586;BME280;12459;42.646;23.292;2023-11-19T12:02:13;93629.31;;;7.96;60.64
7586;BME280;12459;42.646;23.292;2023-11-19T12:32:41;93666.63;;;8.17;60.87
7586;BME280;12459;42.646;23.292;2023-11-19T12:47:43;93541.00;;;7.12;59.91
7586;BME280;12459;42.646;23.292;2023-11-19T13:02:50;93651.03;;;7.84;60.83
7586;BME280;12459;42.646;23.292;2023-11-19T13:17:52;93418.53;;;6.37;58.45
7586;BME280;12459;42.646;23.292;2023-11-19T13:32:54;93442.50;;;6.59;58.38
7586;BME280;12459;42.646;23.292;2023-11-19T13:47:57;93595.09;;;7.52;58.86
7586;BME280;12459;42.646;23.292;2023-11-19T14:02:59;93665.53;;;7.72;59.60
7586;BME280;12459;42.646;23.292;2023-11-19T14:18:01;93477.09;;;6.59;58.01
7586;BME280;12459;42.646;23.292;2023-11-19T14:33:03;93561.19;;;7.17;56.74
7586;BME280;12459;42.646;23.292;2023-11-19T14:48:06;93582.13;;;7.18;54.40
7586;BME280;12459;42.646;23.292;2023-11-19T15:03:08;93542.53;;;6.70;56.15
7586;BME280;12459;42.646;23.292;2023-11-19T15:18:11;93568.38;;;6.56;56.18
7586;BME280;12459;42.646;23.292;2023-11-19T15:33:12;93657.41;;;6.69;62.12
7586;BME280;12459;42.646;23.292;2023-11-19T15:48:14;93604.16;;;5.27;66.61
7586;BME280;12459;42.646;23.292;2023-11-19T16:03:16;93702.03;;;5.69;71.15
7586;BME280;12459;42.646;23.292;2023-11-19T16:18:18;93492.69;;;4.02;72.42
7586;BME280;12459;42.646;23.292;2023-11-19T16:33:20;93522.50;;;4.69;69.68
7586;BME280;12459;42.646;23.292;2023-11-19T16:48:31;93515.88;;;4.93;71.01
7586;BME280;12459;42.646;23.292;2023-11-19T17:03:34;93483.13;;;4.75;69.33
7586;BME280;12459;42.646;23.292;2023-11-19T17:18:36;93574.53;;;5.25;69.30
7586;BME280;12459;42.646;23.292;2023-11-19T17:33:39;93679.31;;;6.37;67.40
7586;BME280;12459;42.646;23.292;2023-11-19T17:48:41;93571.16;;;5.94;68.59
7586;BME280;12459;42.646;23.292;2023-11-19T18:03:43;93446.09;;;4.96;67.12
7586;BME280;12459;42.646;23.292;2023-11-19T18:18:45;93662.03;;;7.00;61.24
7586;BME280;12459;42.646;23.292;2023-11-19T18:33:48;93639.19;;;6.96;63.16
7586;BME280;12459;42.646;23.292;2023-11-19T18:48:50;93679.50;;;6.87;66.56
7586;BME280;12459;42.646;23.292;2023-11-19T19:03:53;93580.97;;;5.83;68.00
7586;BME280;12459;42.646;23.292;2023-11-19T19:18:55;93713.03;;;7.02;63.12
7586;BME280;12459;42.646;23.292;2023-11-19T19:33:57;93523.09;;;7.52;51.11
7586;BME280;12459;42.646;23.292;2023-11-19T19:48:59;93521.03;;;8.02;45.97
7586;BME280;12459;42.646;23.292;2023-11-19T20:04:01;93665.38;;;9.34;46.33
7586;BME280;12459;42.646;23.292;2023-11-19T20:19:04;93418.13;;;8.01;43.97
7586;BME280;12459;42.646;23.292;2023-11-19T20:34:06;93562.09;;;9.03;45.49
7586;BME280;12459;42.646;23.292;2023-11-19T20:49:08;93582.75;;;8.99;46.09
7586;BME280;12459;42.646;23.292;2023-11-19T21:04:10;93451.44;;;8.45;48.66
7586;BME280;12459;42.646;23.292;2023-11-19T21:19:12;93497.66;;;8.93;49.05
7586;BME280;12459;42.646;23.292;2023-11-19T21:34:14;93482.34;;;8.98;46.44
7586;BME280;12459;42.646;23.292;2023-11-19T21:49:16;93475.13;;;9.39;48.09
7586;BME280;12459;42.646;23.292;2023-11-19T22:04:17;93449.81;;;9.47;50.28
7586;BME280;12459;42.646;23.292;2023-11-19T22:19:19;93484.72;;;9.71;51.58
7586;BME280;12459;42.646;23.292;2023-11-19T22:34:21;93494.09;;;10.20;51.96
7586;BME280;12459;42.646;23.292;2023-11-19T22:49:23;93524.00;;;10.11;53.94
7586;BME280;12459;42.646;23.292;2023-11-19T23:04:24;93554.56;;;9.42;54.32
7586;BME280;12459;42.646;23.292;2023-11-19T23:19:26;93558.13;;;8.66;57.70
7586;BME280;12459;42.646;23.292;2023-11-19T23:34:28;93495.47;;;9.26;58.54
7586;BME280;12459;42.646;23.292;2023-11-19T23:49:32;93475.88;;;9.36;60.00
